Time;durP1;ratioP1;P1;durP2;ratioP2;P2;SDS_P1;SDS_P2;PMS_P1;PMS_P2;Temp;Humidity;BMP_temperature;BMP_pressure;BME280_temperature;BME280_humidity;BME280_pressure;Samples;Min_cycle;Max_cycle;Signal;HPM_P1;HPM_P2
2023/10/26 00:01:25;;;;;;;7.97;6.10;;;9.90;99.90;;;;;;4822826;29;20046;-78
2023/10/26 00:03:50;;;;;;;6.43;5.65;;;9.60;99.90;;;;;;4806854;29;20752;-78
2023/10/26 00:06:16;;;;;;;7.20;5.78;;;9.90;99.90;;;;;;4805247;29;20062;-78
2023/10/26 00:08:42;;;;;;;6.05;5.45;;;9.80;99.90;;;;;;4822814;29;20054;-78
2023/10/26 00:11:07;;;;;;;4.88;4.22;;;9.60;99.90;;;;;;4823832;29;20074;-78
2023/10/26 00:13:33;;;;;;;5.93;4.50;;;9.90;99.90;;;;;;4822827;29;20458;-78
2023/10/26 00:15:59;;;;;;;5.95;5.10;;;9.90;99.90;;;;;;4825485;29;20042;-86
2023/10/26 00:18:24;;;;;;;5.85;5.05;;;9.60;99.90;;;;;;4798266;29;20054;-86
2023/10/26 00:20:59;;;;;;;6.80;5.60;;;9.70;99.90;;;;;;4808061;29;20481;-87
2023/10/26 00:23:24;;;;;;;6.47;5.38;;;9.60;99.90;;;;;;4808915;29;20057;-86
2023/10/26 00:25:50;;;;;;;6.72;5.55;;;9.90;99.90;;;;;;4808505;29;20046;-86
2023/10/26 00:28:16;;;;;;;6.88;5.70;;;9.50;99.90;;;;;;4805691;29;20129;-86
2023/10/26 00:30:42;;;;;;;6.05;5.10;;;9.60;99.90;;;;;;4804956;29;20046;-86
2023/10/26 00:33:07;;;;;;;7.57;5.88;;;9.50;99.90;;;;;;4808643;29;20458;-86
2023/10/26 00:35:33;;;;;;;6.65;5.95;;;9.90;99.90;;;;;;4808638;29;20050;-86
2023/10/26 00:37:58;;;;;;;6.18;5.57;;;10.00;99.90;;;;;;4805430;29;20046;-86
2023/10/26 00:40:25;;;;;;;6.93;6.03;;;9.60;99.90;;;;;;4801824;29;20417;-86
2023/10/26 00:42:50;;;;;;;7.70;6.63;;;10.00;99.90;;;;;;4807776;29;20482;-86
2023/10/26 00:45:16;;;;;;;7.75;6.65;;;10.00;99.90;;;;;;4808870;29;20057;-86
2023/10/26 00:47:42;;;;;;;9.00;6.38;;;10.00;99.90;;;;;;4806877;29;20051;-86
2023/10/26 00:50:08;;;;;;;8.48;7.60;;;9.70;99.90;;;;;;4801763;29;20495;-86
2023/10/26 00:52:36;;;;;;;;;;;9.70;99.90;;;;;;4788450;29;20103;-86
2023/10/26 00:55:05;;;;;;;11.65;9.98;;;10.00;99.90;;;;;;4796325;29;20378;-84
2023/10/26 00:57:31;;;;;;;12.65;10.30;;;10.20;99.90;;;;;;4784576;29;20046;-86
2023/10/26 00:59:59;;;;;;;11.00;9.07;;;9.90;99.90;;;;;;4807709;29;20046;-86
2023/10/26 01:02:25;;;;;;;13.90;10.93;;;10.20;99.90;;;;;;4805681;29;20413;-87
2023/10/26 01:04:51;;;;;;;13.63;10.90;;;10.20;99.90;;;;;;4810144;29;20058;-86
2023/10/26 01:07:17;;;;;;;15.25;12.20;;;10.10;99.90;;;;;;4810537;29;20078;-86
2023/10/26 01:09:43;;;;;;;14.35;12.10;;;10.20;99.90;;;;;;4793233;29;20053;-86
2023/10/26 01:12:10;;;;;;;15.40;12.32;;;10.20;99.90;;;;;;4807859;29;20136;-86
2023/10/26 01:14:36;;;;;;;15.52;13.23;;;10.30;99.90;;;;;;4807860;29;20383;-86
2023/10/26 01:17:02;;;;;;;17.25;13.38;;;9.90;99.90;;;;;;4808011;29;20100;-86
2023/10/26 01:19:43;;;;;;;15.25;13.45;;;9.90;99.90;;;;;;4807405;29;20406;-86
2023/10/26 01:22:09;;;;;;;15.10;12.85;;;9.90;99.90;;;;;;4804022;29;20046;-86
2023/10/26 01:24:38;;;;;;;18.75;14.60;;;9.90;99.90;;;;;;4760885;29;20079;-86
2023/10/26 01:27:04;;;;;;;16.17;14.38;;;10.20;99.90;;;;;;4792706;29;20051;-86
2023/10/26 01:29:31;;;;;;;17.23;14.35;;;9.90;99.90;;;;;;4807779;29;20081;-86
2023/10/26 01:31:57;;;;;;;15.82;13.38;;;10.20;99.90;;;;;;4808015;29;20088;-86
2023/10/26 01:34:22;;;;;;;18.60;16.00;;;10.00;99.90;;;;;;4792516;29;20074;-86
2023/10/26 01:36:48;;;;;;;21.83;17.10;;;9.90;99.90;;;;;;4807677;29;20046;-86
2023/10/26 01:39:16;;;;;;;19.80;16.27;;;10.30;99.90;;;;;;4807711;29;20094;-86
2023/10/26 01:41:42;;;;;;;16.70;14.60;;;10.10;99.90;;;;;;4807911;29;20125;-86
2023/10/26 01:44:08;;;;;;;20.80;16.20;;;10.10;99.90;;;;;;4807593;29;20057;-86
2023/10/26 01:46:34;;;;;;;19.75;15.18;;;10.00;99.90;;;;;;4778227;29;20416;-86
2023/10/26 01:49:01;;;;;;;17.55;15.07;;;10.30;99.90;;;;;;4808969;29;20514;-86
2023/10/26 01:51:27;;;;;;;19.25;15.85;;;10.20;99.90;;;;;;4792942;29;20508;-86
2023/10/26 01:53:52;;;;;;;21.15;17.02;;;10.40;99.90;;;;;;4807434;29;20125;-85
2023/10/26 01:56:18;;;;;;;17.10;14.30;;;10.30;99.90;;;;;;4807421;29;20471;-86
2023/10/26 01:58:45;;;;;;;16.13;13.93;;;10.10;99.90;;;;;;4791388;29;20198;-86
2023/10/26 02:01:10;;;;;;;17.25;13.70;;;10.40;99.90;;;;;;4807719;29;20042;-86
2023/10/26 02:03:36;;;;;;;17.08;14.38;;;10.20;99.90;;;;;;4789746;29;20046;-86
2023/10/26 02:06:05;;;;;;;20.50;14.40;;;10.10;99.90;;;;;;4803061;29;20070;-85
2023/10/26 02:08:31;;;;;;;20.05;16.05;;;10.30;99.90;;;;;;4793125;29;20054;-86
2023/10/26 02:10:57;;;;;;;19.30;15.30;;;10.00;99.90;;;;;;4806177;29;20530;-86
2023/10/26 02:13:22;;;;;;;19.45;16.08;;;10.40;99.90;;;;;;4807133;29;20052;-86
2023/10/26 02:15:48;;;;;;;19.33;15.07;;;10.30;99.90;;;;;;4792535;29;20053;-86
2023/10/26 02:18:14;;;;;;;18.00;14.80;;;10.40;99.90;;;;;;4807590;29;20625;-86
2023/10/26 02:20:39;;;;;;;16.33;14.00;;;10.00;99.90;;;;;;4791937;29;20061;-86
2023/10/26 02:23:05;;;;;;;17.17;13.38;;;10.10;99.90;;;;;;4807488;29;20041;-86
2023/10/26 02:25:31;;;;;;;14.35;12.20;;;10.00;99.90;;;;;;4789483;29;20054;-85
2023/10/26 02:27:57;;;;;;;14.63;12.35;;;10.40;99.90;;;;;;4803840;29;20205;-86
2023/10/26 02:30:23;;;;;;;13.50;12.10;;;10.10;99.90;;;;;;4807304;29;20054;-86
2023/10/26 02:32:49;;;;;;;13.52;11.43;;;10.20;99.90;;;;;;4792065;29;20490;-86
2023/10/26 02:35:15;;;;;;;16.02;13.85;;;10.10;99.90;;;;;;4789268;29;20125;-86
2023/10/26 02:37:41;;;;;;;23.05;18.00;;;10.20;99.90;;;;;;4803455;29;20053;-86
2023/10/26 02:40:08;;;;;;;21.52;18.40;;;10.10;99.90;;;;;;4806930;29;20042;-86
2023/10/26 02:42:38;;;;;;;17.73;14.80;;;10.00;99.90;;;;;;4777705;29;20521;-86
2023/10/26 02:45:14;;;;;;;19.23;15.00;;;10.10;99.90;;;;;;4806712;29;20061;-86
2023/10/26 06:53:34;;;;;;;23.27;17.42;;;9.00;99.90;;;;;;4914637;24;20145;-84
2023/10/26 06:56:00;;;;;;;23.70;17.40;;;9.40;99.90;;;;;;4802721;29;20137;-83
2023/10/26 06:58:26;;;;;;;25.88;18.70;;;9.50;99.90;;;;;;5270976;24;20445;-83
2023/10/26 07:00:52;;;;;;;28.55;21.35;;;9.50;99.90;;;;;;4775927;29;20077;-83
2023/10/26 07:03:18;;;;;;;;;;;9.20;99.90;;;;;;4790834;29;20076;-83
2023/10/26 07:05:43;;;;;;;25.30;17.67;;;9.50;99.90;;;;;;4790340;29;19975;-84
2023/10/26 07:08:09;;;;;;;23.33;17.70;;;9.20;99.90;;;;;;4775698;29;20066;-84
2023/10/26 07:10:38;;;;;;;22.05;17.15;;;9.30;99.90;;;;;;4790646;29;20111;-84
2023/10/26 07:13:04;;;;;;;20.00;15.40;;;9.60;99.90;;;;;;4775645;29;20055;-84
2023/10/26 07:15:30;;;;;;;19.00;14.30;;;9.30;99.90;;;;;;4790335;29;20196;-84
2023/10/26 07:17:56;;;;;;;17.67;13.43;;;9.40;99.90;;;;;;4775519;29;20498;-83
2023/10/26 07:20:21;;;;;;;22.75;15.98;;;9.60;99.90;;;;;;4790327;29;20054;-84
2023/10/26 07:22:48;;;;;;;20.75;15.27;;;9.40;99.90;;;;;;4775521;29;20049;-84
2023/10/26 07:25:13;;;;;;;22.73;16.38;;;9.40;99.90;;;;;;4790212;29;20069;-84
2023/10/26 07:27:40;;;;;;;21.90;16.80;;;9.40;99.90;;;;;;4760515;29;20039;-84
2023/10/26 07:30:06;;;;;;;22.42;17.45;;;9.70;99.90;;;;;;4760426;29;20055;-84
2023/10/26 07:32:32;;;;;;;25.52;19.02;;;9.50;99.90;;;;;;4775214;29;20050;-84
2023/10/26 07:34:59;;;;;;;23.38;17.58;;;9.70;99.90;;;;;;4790342;29;20491;-84
2023/10/26 07:37:24;;;;;;;23.77;16.63;;;9.50;99.90;;;;;;4788264;29;20503;-84
2023/10/26 07:39:50;;;;;;;25.45;17.77;;;9.60;99.90;;;;;;4771909;30;20062;-84
2023/10/26 07:42:16;;;;;;;26.80;19.40;;;9.60;99.90;;;;;;4784182;29;20097;-84
2023/10/26 07:44:42;;;;;;;21.77;17.02;;;9.70;99.90;;;;;;4774757;29;20039;-84
2023/10/26 07:47:12;;;;;;;25.13;18.55;;;9.90;99.90;;;;;;4789764;29;20058;-84
2023/10/26 07:49:38;;;;;;;26.02;19.83;;;10.10;99.90;;;;;;4789648;29;20522;-84
2023/10/26 07:52:04;;;;;;;22.27;16.08;;;9.70;99.90;;;;;;4789975;29;20055;-84
2023/10/26 07:54:29;;;;;;;23.98;17.40;;;9.70;99.90;;;;;;4789426;29;20560;-84
2023/10/26 07:56:55;;;;;;;20.80;15.90;;;9.70;99.90;;;;;;4773811;29;20105;-84
2023/10/26 07:59:21;;;;;;;22.15;16.35;;;9.80;99.90;;;;;;4777353;30;20078;-84
2023/10/26 08:01:47;;;;;;;19.00;15.63;;;10.00;99.90;;;;;;4756931;30;20078;-84
2023/10/26 08:04:13;;;;;;;20.25;14.52;;;9.70;99.90;;;;;;4757022;30;20560;-84
2023/10/26 08:06:39;;;;;;;21.98;14.93;;;10.00;99.90;;;;;;4771544;30;20055;-84
2023/10/26 08:09:05;;;;;;;23.20;17.52;;;9.80;99.90;;;;;;4756854;30;20370;-84
2023/10/26 08:11:30;;;;;;;20.10;14.60;;;9.60;99.90;;;;;;4756901;30;20063;-84
2023/10/26 08:13:56;;;;;;;20.27;15.23;;;10.00;99.90;;;;;;4742316;30;20047;-84
2023/10/26 08:16:22;;;;;;;21.80;15.27;;;9.60;99.90;;;;;;4756606;30;20062;-84
2023/10/26 08:18:47;;;;;;;20.05;15.02;;;9.60;99.90;;;;;;4771417;30;20138;-84
2023/10/26 08:21:13;;;;;;;22.23;16.05;;;9.70;99.90;;;;;;4770476;30;20155;-84
2023/10/26 08:23:39;;;;;;;19.33;14.05;;;9.60;99.90;;;;;;4756454;30;20047;-84
2023/10/26 08:26:09;;;;;;;18.50;14.07;;;9.90;99.90;;;;;;4756774;30;20059;-84
2023/10/26 08:28:38;;;;;;;18.63;13.82;;;9.60;99.90;;;;;;4771148;30;20093;-84
2023/10/26 08:31:06;;;;;;;19.85;13.32;;;9.80;99.90;;;;;;4771424;30;20062;-84
2023/10/26 08:33:34;;;;;;;19.80;14.18;;;9.70;99.90;;;;;;4756640;30;20066;-83
2023/10/26 08:35:59;;;;;;;17.33;13.32;;;10.00;99.90;;;;;;4771074;30;20056;-84
2023/10/26 12:40:08;;;;;;;24.77;17.05;;;11.00;99.90;;;;;;4864932;24;20065;-83
2023/10/26 12:42:34;;;;;;;21.63;15.65;;;11.10;99.90;;;;;;4809846;29;20589;-84
2023/10/26 12:45:00;;;;;;;20.45;16.15;;;11.10;99.90;;;;;;5302689;24;20076;-78
2023/10/26 12:47:26;;;;;;;20.88;15.13;;;11.10;99.90;;;;;;4801989;29;20058;-78
2023/10/26 12:49:52;;;;;;;25.20;16.83;;;11.10;99.90;;;;;;4820010;29;20111;-78
2023/10/26 12:52:17;;;;;;;21.15;15.68;;;11.20;99.90;;;;;;4808253;29;20054;-78
2023/10/26 12:54:43;;;;;;;22.08;16.15;;;11.20;99.90;;;;;;4802502;29;20506;-78
2023/10/26 12:57:09;;;;;;;20.95;15.57;;;11.10;99.90;;;;;;4820975;29;20063;-78
2023/10/26 12:59:34;;;;;;;24.27;17.45;;;11.20;99.90;;;;;;4803298;29;20062;-78
2023/10/26 13:02:00;;;;;;;25.00;17.67;;;11.30;99.90;;;;;;4788458;29;20808;-78
2023/10/26 13:04:26;;;;;;;22.45;15.88;;;11.30;99.90;;;;;;4809776;29;20110;-78
2023/10/26 13:06:52;;;;;;;24.27;17.63;;;11.30;99.90;;;;;;4806387;29;20054;-78
2023/10/26 13:09:18;;;;;;;22.98;17.13;;;11.30;99.90;;;;;;4809788;29;20047;-79
2023/10/26 13:11:43;;;;;;;20.67;15.80;;;11.40;99.90;;;;;;4797056;29;20050;-78
2023/10/26 13:14:09;;;;;;;20.80;15.60;;;11.40;99.90;;;;;;4791267;29;20050;-79
2023/10/26 13:16:35;;;;;;;23.58;16.98;;;11.40;99.90;;;;;;4806127;29;20102;-79
2023/10/26 13:19:00;;;;;;;20.40;15.30;;;11.50;99.90;;;;;;4822620;29;20054;-78
2023/10/26 13:21:26;;;;;;;19.33;14.63;;;11.50;99.90;;;;;;4810020;29;20051;-79
2023/10/26 13:23:52;;;;;;;19.75;14.82;;;11.50;99.90;;;;;;4822596;29;20115;-79
2023/10/26 13:26:17;;;;;;;20.83;15.60;;;11.50;99.90;;;;;;4822503;29;20494;-79
2023/10/26 13:28:43;;;;;;;19.10;14.38;;;11.50;99.90;;;;;;4822520;29;20139;-79
2023/10/26 13:31:09;;;;;;;19.02;13.85;;;11.40;99.90;;;;;;4806210;29;20487;-79
2023/10/26 13:33:34;;;;;;;17.83;13.88;;;11.40;99.90;;;;;;4822635;29;20086;-79
2023/10/26 13:36:00;;;;;;;19.15;14.30;;;11.40;99.90;;;;;;4821335;29;20414;-79
2023/10/26 13:38:26;;;;;;;17.10;14.23;;;11.40;99.90;;;;;;4822531;29;20087;-78
2023/10/26 13:40:52;;;;;;;20.65;15.43;;;11.50;99.90;;;;;;4791066;29;20069;-78
2023/10/26 13:43:17;;;;;;;22.60;18.10;;;11.80;99.90;;;;;;4822261;29;20046;-78
2023/10/26 13:45:43;;;;;;;19.75;16.02;;;11.80;99.90;;;;;;4813827;29;20062;-78
2023/10/26 13:48:10;;;;;;;19.42;15.65;;;12.00;99.90;;;;;;4803753;29;20187;-78
2023/10/26 13:50:39;;;;;;;22.48;16.77;;;12.20;99.90;;;;;;4787672;29;20415;-78
2023/10/26 13:53:07;;;;;;;16.10;13.05;;;12.30;99.90;;;;;;4775109;29;20507;-78
2023/10/26 13:55:35;;;;;;;16.48;13.18;;;12.30;99.90;;;;;;4802477;29;20448;-79
2023/10/26 13:58:01;;;;;;;18.45;14.10;;;12.40;99.90;;;;;;4803730;29;20487;-79
2023/10/26 14:00:27;;;;;;;18.85;13.50;;;12.40;99.90;;;;;;4803705;29;20054;-79
2023/10/26 14:02:53;;;;;;;17.02;13.20;;;12.60;99.90;;;;;;4803860;29;20069;-79
2023/10/26 14:05:19;;;;;;;17.80;14.18;;;12.70;99.90;;;;;;4803533;29;20061;-79
2023/10/26 14:07:46;;;;;;;21.23;15.25;;;12.70;99.90;;;;;;4772637;29;20171;-79
2023/10/26 14:10:12;;;;;;;17.67;14.13;;;12.70;99.90;;;;;;4803829;29;20593;-79
2023/10/26 14:12:38;;;;;;;19.90;15.15;;;12.80;99.90;;;;;;4803365;29;20058;-79
2023/10/26 14:15:05;;;;;;;18.30;14.45;;;12.80;99.90;;;;;;4803531;29;20127;-79
2023/10/26 14:17:36;;;;;;;16.88;14.05;;;12.90;99.90;;;;;;4803382;29;20059;-79
2023/10/26 14:20:06;;;;;;;16.75;13.70;;;13.00;99.90;;;;;;4803816;29;20059;-79
2023/10/26 14:22:33;;;;;;;17.02;14.52;;;13.00;99.90;;;;;;4803407;29;20079;-78
2023/10/26 14:24:59;;;;;;;19.70;14.10;;;13.00;99.90;;;;;;4782597;30;20588;-79
2023/10/26 14:27:24;;;;;;;16.38;14.38;;;13.10;99.90;;;;;;4792164;29;20062;-82
2023/10/26 14:29:50;;;;;;;18.10;15.43;;;13.10;99.90;;;;;;4788694;29;20111;-81
2023/10/26 14:32:16;;;;;;;16.75;14.07;;;13.10;99.90;;;;;;4773569;29;20108;-81
2023/10/26 14:34:43;;;;;;;18.27;15.25;;;13.10;99.90;;;;;;4788318;29;20047;-81
2023/10/26 14:37:12;;;;;;;16.67;13.38;;;13.00;99.90;;;;;;4770273;29;20043;-81
2023/10/26 14:39:38;;;;;;;16.27;14.35;;;12.90;99.90;;;;;;4770497;29;20173;-80
2023/10/26 14:42:04;;;;;;;;;;;12.70;99.90;;;;;;4766027;29;20056;-79
2023/10/26 14:44:30;;;;;;;15.43;12.88;;;12.60;99.90;;;;;;4801412;29;19930;-80
2023/10/26 14:46:55;;;;;;;14.45;11.98;;;12.50;99.90;;;;;;4786125;29;20063;-80
2023/10/26 14:49:21;;;;;;;14.02;12.13;;;12.50;99.90;;;;;;4803090;29;20050;-80
2023/10/26 14:51:47;;;;;;;16.88;12.80;;;12.50;99.90;;;;;;4785015;29;20053;-80
2023/10/26 14:54:12;;;;;;;16.42;13.77;;;12.40;99.90;;;;;;4792584;29;20583;-80
2023/10/26 14:56:38;;;;;;;14.13;12.50;;;12.30;99.90;;;;;;4737269;29;20043;-80
2023/10/26 14:59:05;;;;;;;14.45;12.05;;;12.30;99.90;;;;;;4752963;29;20139;-80
2023/10/26 15:01:30;;;;;;;13.27;10.88;;;12.30;99.90;;;;;;4779215;29;20063;-79
2023/10/26 15:03:59;;;;;;;13.60;10.85;;;12.20;99.90;;;;;;4761029;30;20055;-80
2023/10/26 15:06:24;;;;;;;14.05;11.90;;;12.20;99.90;;;;;;4780392;29;20797;-80
2023/10/26 15:08:50;;;;;;;13.13;11.18;;;12.10;99.90;;;;;;4759796;29;20159;-80
2023/10/26 15:11:16;;;;;;;14.32;11.43;;;12.10;99.90;;;;;;4788228;29;20446;-81
2023/10/26 15:13:41;;;;;;;14.48;11.85;;;12.00;99.90;;;;;;4773524;29;20157;-82
2023/10/26 15:16:07;;;;;;;13.55;11.38;;;12.00;99.90;;;;;;4774240;29;20051;-82
2023/10/26 15:18:33;;;;;;;14.15;11.75;;;11.90;99.90;;;;;;4775955;29;20066;-81
2023/10/26 15:21:06;;;;;;;14.63;11.93;;;11.90;99.90;;;;;;4795306;29;20161;-81
2023/10/26 15:23:32;;;;;;;15.07;11.52;;;11.80;99.90;;;;;;4799852;29;20450;-81
2023/10/26 15:26:05;;;;;;;13.75;10.75;;;11.80;99.90;;;;;;4789752;29;20063;-88
2023/10/26 15:28:35;;;;;;;12.02;10.32;;;11.80;99.90;;;;;;4775404;29;20506;-87
2023/10/26 15:31:02;;;;;;;13.27;10.95;;;11.70;99.90;;;;;;4792405;29;20455;-87
2023/10/26 15:33:28;;;;;;;12.02;10.57;;;11.70;99.90;;;;;;4762739;29;20058;-87
2023/10/26 15:35:53;;;;;;;12.45;10.95;;;11.70;99.90;;;;;;4792528;29;20059;-87
2023/10/26 15:38:19;;;;;;;12.65;11.20;;;11.60;99.90;;;;;;4748267;29;20533;-87
2023/10/26 15:41:03;;;;;;;11.63;10.13;;;11.60;99.90;;;;;;4775215;29;20058;-88
2023/10/26 15:43:30;;;;;;;13.93;11.15;;;11.50;99.90;;;;;;4789343;29;20046;-88
2023/10/26 15:45:56;;;;;;;12.50;10.65;;;11.50;99.90;;;;;;4792237;29;20127;-86
2023/10/26 15:48:21;;;;;;;12.07;10.18;;;11.40;99.90;;;;;;4794376;29;20050;-87
2023/10/26 15:50:47;;;;;;;12.40;10.40;;;11.40;99.90;;;;;;4792448;29;20392;-87
2023/10/26 15:53:13;;;;;;;11.52;9.68;;;11.40;99.90;;;;;;4778160;29;20051;-88
2023/10/26 15:55:39;;;;;;;11.55;9.80;;;11.30;99.90;;;;;;4785657;29;20054;-86
2023/10/26 15:58:04;;;;;;;11.57;9.75;;;11.30;99.90;;;;;;4769480;29;20141;-86
2023/10/26 16:00:30;;;;;;;10.25;8.98;;;11.30;99.90;;;;;;4747823;29;20495;-86
2023/10/26 16:02:56;;;;;;;10.93;9.52;;;11.20;99.90;;;;;;4777098;29;20057;-87
2023/10/26 16:05:22;;;;;;;13.48;10.40;;;11.20;99.90;;;;;;4776378;29;20051;-87
2023/10/26 16:07:47;;;;;;;12.48;10.38;;;11.20;99.90;;;;;;4761642;29;20051;-86
2023/10/26 16:10:13;;;;;;;13.40;9.93;;;11.10;99.90;;;;;;4775216;29;20491;-86
2023/10/26 16:12:39;;;;;;;12.35;10.05;;;11.10;99.90;;;;;;4790351;29;20059;-87
2023/10/26 16:15:05;;;;;;;11.98;10.18;;;11.10;99.90;;;;;;4759024;29;21031;-89
2023/10/26 16:17:33;;;;;;;12.43;10.00;;;11.00;99.90;;;;;;4771665;29;20051;-89
2023/10/26 16:19:59;;;;;;;12.77;10.70;;;11.00;99.90;;;;;;4771384;29;20050;-89
2023/10/26 16:22:25;;;;;;;14.05;11.90;;;11.00;99.90;;;;;;4790517;29;20055;-87
2023/10/26 16:24:51;;;;;;;17.95;13.57;;;11.00;99.90;;;;;;4768702;29;20109;-87
2023/10/26 16:27:17;;;;;;;16.33;14.38;;;11.00;99.90;;;;;;4789739;29;20410;-89
2023/10/26 16:29:43;;;;;;;15.60;13.63;;;11.00;99.90;;;;;;4774017;29;20055;-88
2023/10/26 16:32:09;;;;;;;17.55;13.80;;;11.00;99.90;;;;;;4768534;29;20524;-89
2023/10/26 16:34:35;;;;;;;17.23;14.20;;;11.00;99.90;;;;;;4768294;29;20055;-89
2023/10/26 16:37:00;;;;;;;16.13;13.73;;;11.00;99.90;;;;;;4759996;29;20062;-88
2023/10/26 16:39:26;;;;;;;15.38;12.90;;;11.00;99.90;;;;;;4752940;29;20114;-88
2023/10/26 16:41:52;;;;;;;13.20;11.48;;;11.00;99.90;;;;;;4773493;29;20108;-87
2023/10/26 16:44:17;;;;;;;12.65;10.70;;;11.00;99.90;;;;;;4784622;29;20066;-88
2023/10/26 16:46:43;;;;;;;13.30;10.63;;;10.90;99.90;;;;;;4790228;29;20141;-88
2023/10/26 16:49:09;;;;;;;11.98;10.23;;;10.90;99.90;;;;;;4770593;29;20061;-87
2023/10/26 16:51:34;;;;;;;11.10;9.45;;;10.90;99.90;;;;;;4787641;29;20735;-88
2023/10/26 16:54:00;;;;;;;12.35;10.20;;;10.90;99.90;;;;;;4758813;29;20061;-88
2023/10/26 16:56:27;;;;;;;12.23;9.77;;;10.90;99.90;;;;;;4771374;29;20051;-88
2023/10/26 16:58:53;;;;;;;12.40;9.50;;;10.80;99.90;;;;;;4762506;29;20086;-88
2023/10/26 17:01:19;;;;;;;10.90;9.10;;;10.80;99.90;;;;;;4757064;29;20440;-88
2023/10/26 17:03:46;;;;;;;11.85;8.98;;;10.80;99.90;;;;;;4759623;29;20047;-88
2023/10/26 17:06:11;;;;;;;;;;;10.80;99.90;;;;;;4783122;29;20061;-86
2023/10/26 17:08:37;;;;;;;9.85;8.38;;;10.80;99.90;;;;;;4770562;29;20000;-87
2023/10/26 17:11:03;;;;;;;10.25;8.07;;;10.80;99.90;;;;;;4775501;29;20063;-88
2023/10/26 17:13:29;;;;;;;9.63;8.02;;;10.80;99.90;;;;;;4759465;29;20055;-89
2023/10/26 17:15:54;;;;;;;9.13;7.88;;;10.70;99.90;;;;;;4761107;29;20062;-89
2023/10/26 17:18:21;;;;;;;9.00;7.07;;;10.70;99.90;;;;;;4761356;29;20487;-89
2023/10/26 17:20:48;;;;;;;8.60;7.60;;;10.70;99.90;;;;;;4771286;29;20048;-89
2023/10/26 17:23:13;;;;;;;9.10;7.95;;;10.70;99.90;;;;;;4770989;30;20547;-89
2023/10/26 17:25:39;;;;;;;10.13;7.82;;;10.80;99.90;;;;;;4763711;29;20047;-88
2023/10/26 17:28:05;;;;;;;10.27;8.50;;;10.70;99.90;;;;;;4790510;29;20043;-89
2023/10/26 17:30:31;;;;;;;11.23;9.32;;;10.70;99.90;;;;;;4792769;29;20046;-89
2023/10/26 17:33:01;;;;;;;10.55;9.07;;;10.70;99.90;;;;;;4763725;29;20054;-89
2023/10/26 17:35:27;;;;;;;11.55;9.05;;;10.70;99.90;;;;;;4794695;29;20146;-87
2023/10/26 17:37:53;;;;;;;11.57;9.82;;;10.70;99.90;;;;;;4753611;29;20035;-89
2023/10/26 17:40:22;;;;;;;12.68;10.45;;;10.70;99.90;;;;;;4784858;29;20061;-88
2023/10/26 17:42:47;;;;;;;13.35;10.38;;;10.70;99.90;;;;;;4792535;29;20051;-88
2023/10/26 17:45:14;;;;;;;12.15;10.10;;;10.70;99.90;;;;;;4780377;29;20070;-88
2023/10/26 17:47:40;;;;;;;14.00;10.90;;;10.70;99.90;;;;;;4775641;29;20066;-88
2023/10/26 17:50:06;;;;;;;11.75;10.27;;;10.70;99.90;;;;;;4803358;29;20040;-89
2023/10/26 17:52:34;;;;;;;13.13;10.35;;;10.70;99.90;;;;;;4788288;29;20050;-87
2023/10/26 17:55:00;;;;;;;11.38;9.63;;;10.70;99.90;;;;;;4786916;29;20035;-86
2023/10/26 17:57:25;;;;;;;12.50;10.30;;;10.70;99.90;;;;;;4801926;29;20091;-89
2023/10/26 17:59:52;;;;;;;12.18;10.27;;;10.70;99.90;;;;;;4764553;29;20039;-90
2023/10/26 18:02:18;;;;;;;12.02;10.43;;;10.70;99.90;;;;;;4781288;29;20050;-89
2023/10/26 18:04:43;;;;;;;12.63;10.45;;;10.80;99.90;;;;;;4756089;30;20522;-90
2023/10/26 18:07:14;;;;;;;12.75;10.82;;;10.70;99.90;;;;;;4788032;29;20423;-90
2023/10/26 18:09:40;;;;;;;12.02;10.63;;;10.80;99.90;;;;;;4774171;29;20049;-89
2023/10/26 18:12:06;;;;;;;12.15;10.50;;;10.80;99.90;;;;;;4760161;29;20058;-88
2023/10/26 18:14:32;;;;;;;12.13;10.57;;;10.80;99.90;;;;;;4782909;29;20086;-88
2023/10/26 18:16:57;;;;;;;13.15;10.77;;;10.70;99.90;;;;;;4759983;29;20054;-88
2023/10/26 18:19:23;;;;;;;15.13;12.40;;;10.70;99.90;;;;;;4758942;29;20050;-88
2023/10/26 18:21:50;;;;;;;12.77;11.20;;;10.80;99.90;;;;;;4759902;29;20054;-88
2023/10/26 18:24:16;;;;;;;14.15;11.20;;;10.80;99.90;;;;;;4788748;29;20054;-92
2023/10/26 18:26:41;;;;;;;11.88;10.15;;;10.80;99.90;;;;;;4760332;29;20055;-88
2023/10/26 18:29:07;;;;;;;14.57;12.23;;;10.80;99.90;;;;;;4783990;29;20058;-88
2023/10/26 18:31:33;;;;;;;14.90;11.88;;;10.90;99.90;;;;;;4757947;30;20062;-88
2023/10/26 18:33:58;;;;;;;16.70;12.90;;;10.80;99.90;;;;;;4761083;29;20126;-88
2023/10/26 18:36:25;;;;;;;15.90;13.30;;;10.80;99.90;;;;;;4760087;29;20629;-88
2023/10/26 18:38:51;;;;;;;17.77;14.60;;;10.80;99.90;;;;;;4786491;29;20058;-88
2023/10/26 18:41:24;;;;;;;17.80;13.77;;;10.80;99.90;;;;;;4777281;29;20401;-87
2023/10/26 18:43:51;;;;;;;16.13;13.57;;;10.80;99.90;;;;;;4794484;29;20051;-88
2023/10/26 18:46:17;;;;;;;15.20;12.38;;;10.80;99.90;;;;;;4776538;29;20055;-88
2023/10/26 18:48:43;;;;;;;15.85;12.82;;;10.80;99.90;;;;;;4775620;29;20054;-88
2023/10/26 18:51:09;;;;;;;15.95;13.18;;;10.80;99.90;;;;;;4790231;29;20057;-83
2023/10/26 18:53:37;;;;;;;15.20;12.60;;;10.80;99.90;;;;;;4777246;29;20414;-88
2023/10/26 18:56:03;;;;;;;14.27;11.63;;;10.80;99.90;;;;;;4788090;29;20063;-87
2023/10/26 18:58:29;;;;;;;;;;;10.80;99.90;;;;;;4790899;29;20513;-88
2023/10/26 19:00:56;;;;;;;13.68;11.60;;;10.70;99.90;;;;;;4778108;29;20012;-86
2023/10/26 19:03:23;;;;;;;16.63;13.35;;;10.70;99.90;;;;;;4778119;29;20057;-86
2023/10/26 19:05:50;;;;;;;17.42;13.50;;;10.70;99.90;;;;;;4792378;29;20371;-86
2023/10/26 19:08:18;;;;;;;18.48;14.50;;;10.70;99.90;;;;;;4762624;29;20138;-85
2023/10/26 19:10:44;;;;;;;19.35;15.35;;;10.70;99.90;;;;;;4759500;30;20122;-86
2023/10/26 19:13:13;;;;;;;20.30;15.20;;;10.70;99.90;;;;;;4776475;29;20071;-86
2023/10/26 19:15:39;;;;;;;20.70;15.57;;;10.70;99.90;;;;;;4777086;29;20121;-83
2023/10/26 19:18:05;;;;;;;23.63;17.48;;;10.70;99.90;;;;;;4788854;30;20134;-84
2023/10/26 19:20:33;;;;;;;25.70;19.02;;;10.60;99.90;;;;;;4772563;29;20047;-84
2023/10/26 19:22:59;;;;;;;25.30;18.48;;;10.70;99.90;;;;;;4762464;29;20468;-82
2023/10/26 19:25:26;;;;;;;;;;;10.60;99.90;;;;;;4791649;29;20049;-82
2023/10/26 19:27:53;;;;;;;19.70;14.93;;;10.60;99.90;;;;;;4776339;29;19921;-82
2023/10/26 19:30:22;;;;;;;19.08;14.70;;;10.60;99.90;;;;;;4770131;29;20077;-82
2023/10/26 19:32:48;;;;;;;22.40;15.65;;;10.60;99.90;;;;;;4779962;29;20058;-82
2023/10/26 19:35:14;;;;;;;20.52;14.68;;;10.60;99.90;;;;;;4771247;29;20102;-82
2023/10/26 19:37:39;;;;;;;17.40;13.13;;;10.60;99.90;;;;;;4789936;29;20051;-82
2023/10/26 19:40:07;;;;;;;23.10;16.10;;;10.60;99.90;;;;;;4790596;29;20051;-82
2023/10/26 19:42:33;;;;;;;22.25;14.18;;;10.60;99.90;;;;;;4759941;29;20057;-82
2023/10/26 19:44:59;;;;;;;20.13;13.90;;;10.60;99.90;;;;;;4756678;29;20059;-82
2023/10/26 19:47:25;;;;;;;18.08;13.13;;;10.60;99.90;;;;;;4741926;29;20232;-81
2023/10/26 19:49:50;;;;;;;18.52;13.23;;;10.50;99.90;;;;;;4771035;29;20043;-83
2023/10/26 19:52:17;;;;;;;17.75;13.40;;;10.60;99.90;;;;;;4755400;30;20130;-80
2023/10/26 19:54:44;;;;;;;21.42;14.80;;;10.60;99.90;;;;;;4797721;29;20111;-81
2023/10/26 19:57:11;;;;;;;20.95;14.35;;;10.60;99.90;;;;;;4807000;29;20070;-81
2023/10/26 19:59:37;;;;;;;20.80;15.00;;;10.50;99.90;;;;;;4781553;29;20133;-81
2023/10/26 20:02:04;;;;;;;20.70;15.25;;;10.60;99.90;;;;;;4775740;29;20109;-81
2023/10/26 20:04:31;;;;;;;18.60;13.93;;;10.50;99.90;;;;;;4775294;29;20055;-82
2023/10/26 20:06:58;;;;;;;17.67;13.00;;;10.60;99.90;;;;;;4774356;29;20133;-82
2023/10/26 20:09:24;;;;;;;15.10;11.48;;;10.50;99.90;;;;;;4787131;29;20051;-81
2023/10/26 20:11:50;;;;;;;15.60;12.30;;;10.60;99.90;;;;;;4776008;29;20087;-81
2023/10/26 20:14:19;;;;;;;11.82;9.80;;;10.50;99.90;;;;;;4755445;29;20055;-81
2023/10/26 20:16:45;;;;;;;12.05;9.95;;;10.50;99.90;;;;;;4790193;29;20058;-82
2023/10/26 20:19:11;;;;;;;11.63;9.52;;;10.50;99.90;;;;;;4749350;29;20107;-82
2023/10/26 20:21:38;;;;;;;11.95;9.55;;;10.50;99.90;;;;;;4751815;30;20054;-82
2023/10/26 20:24:05;;;;;;;12.55;9.98;;;10.60;99.90;;;;;;4777612;29;20081;-82
2023/10/26 20:26:31;;;;;;;10.82;9.10;;;10.60;99.90;;;;;;4759375;29;20510;-81
2023/10/26 20:28:59;;;;;;;11.73;9.65;;;10.60;99.90;;;;;;4757299;29;20058;-82
2023/10/26 20:31:26;;;;;;;12.18;10.02;;;10.50;99.90;;;;;;4781551;30;20315;-82
2023/10/26 20:33:52;;;;;;;13.27;10.65;;;10.50;99.90;;;;;;4759923;29;20388;-82
2023/10/26 20:36:18;;;;;;;13.50;10.52;;;10.60;99.90;;;;;;4741996;30;20084;-81